createdAt,value
2023-04-22T00:02:49.028Z,42.88
2023-04-22T00:05:52.206Z,42.83
2023-04-22T00:08:56.542Z,42.92
2023-04-22T00:11:59.747Z,43.14
2023-04-22T00:15:02.966Z,43.27
2023-04-22T00:18:07.349Z,43.37
2023-04-22T00:21:10.312Z,43.53
2023-04-22T00:24:14.590Z,43.60
2023-04-22T00:27:17.523Z,43.64
2023-04-22T00:30:20.417Z,43.79
2023-04-22T00:33:23.322Z,43.84
2023-04-22T00:36:27.830Z,43.83
2023-04-22T00:39:32.403Z,43.83
2023-04-22T00:42:36.020Z,43.91
2023-04-22T00:45:39.094Z,43.99
2023-04-22T00:48:42.805Z,43.96
2023-04-22T00:51:45.866Z,44.18
2023-04-22T00:54:50.403Z,44.21
2023-04-22T00:57:53.382Z,44.20
2023-04-22T01:00:56.580Z,44.28
2023-04-22T01:04:01.062Z,44.16
2023-04-22T01:07:04.455Z,44.29
2023-04-22T01:10:09.853Z,44.26
2023-04-22T01:13:12.720Z,44.26
2023-04-22T01:16:15.861Z,44.43
2023-04-22T01:19:19.723Z,44.30
2023-04-22T01:22:23.974Z,44.42
2023-04-22T01:25:28.308Z,44.42
2023-04-22T01:28:32.270Z,44.47
2023-04-22T01:31:35.597Z,44.42
2023-04-22T01:34:40.397Z,44.48
2023-04-22T01:37:43.330Z,44.54
2023-04-22T01:40:47.678Z,44.46
2023-04-22T01:43:51.156Z,44.40
2023-04-22T01:46:54.032Z,44.43
2023-04-22T01:49:56.960Z,44.46
2023-04-22T01:53:00.266Z,44.51
2023-04-22T01:56:04.875Z,44.45
2023-04-22T01:59:08.018Z,44.60
2023-04-22T02:02:12.840Z,44.60
2023-04-22T02:05:16.091Z,44.69
2023-04-22T02:08:46.915Z,44.63
2023-04-22T02:11:52.490Z,44.73
2023-04-22T02:14:57.409Z,44.68
2023-04-22T02:18:02.175Z,44.65
2023-04-22T02:21:05.242Z,44.62
2023-04-22T02:24:08.379Z,44.64
2023-04-22T02:27:12.644Z,44.70
2023-04-22T02:30:16.111Z,44.60
2023-04-22T02:33:19.055Z,44.71
2023-04-22T02:36:21.988Z,44.72
2023-04-22T02:39:25.100Z,44.75
2023-04-22T02:42:29.441Z,44.82
2023-04-22T02:45:32.472Z,44.87
2023-04-22T02:48:35.359Z,44.91
2023-04-22T02:51:40.098Z,44.81
2023-04-22T02:54:43.200Z,44.87
2023-04-22T02:57:47.604Z,44.68
2023-04-22T03:00:50.620Z,44.72
2023-04-22T03:03:53.923Z,44.75
2023-04-22T03:06:59.931Z,44.62
2023-04-22T03:10:05.089Z,44.64
2023-04-22T03:13:09.474Z,44.75
2023-04-22T03:16:13.447Z,44.75
2023-04-22T03:19:17.826Z,44.82
2023-04-22T03:22:22.568Z,44.80
2023-04-22T03:25:27.862Z,44.75
2023-04-22T03:28:34.583Z,44.96
2023-04-22T03:31:38.145Z,44.89
2023-04-22T03:34:41.149Z,44.83
2023-04-22T03:37:45.787Z,44.81
2023-04-22T03:40:53.144Z,44.92
2023-04-22T03:44:08.101Z,44.83
2023-04-22T03:47:12.444Z,44.98
2023-04-22T03:50:21.968Z,44.92
2023-04-22T03:53:27.238Z,44.92
2023-04-22T03:56:30.580Z,44.86
2023-04-22T03:59:38.011Z,44.93
2023-04-22T04:02:42.777Z,44.93
2023-04-22T04:05:50.938Z,44.85
2023-04-22T04:08:53.955Z,44.76
2023-04-22T04:11:58.124Z,44.78
2023-04-22T04:15:09.974Z,44.82
2023-04-22T04:18:16.247Z,44.74
2023-04-22T04:21:19.477Z,44.74
2023-04-22T04:24:26.330Z,44.77
2023-04-22T04:27:36.152Z,44.67
2023-04-22T04:30:41.737Z,44.75
2023-04-22T04:33:44.874Z,44.78
2023-04-22T04:36:47.878Z,44.75
2023-04-22T04:40:00.002Z,44.70
2023-04-22T04:43:12.982Z,44.64
2023-04-22T04:46:24.268Z,44.72
2023-04-22T04:49:30.759Z,44.72
2023-04-22T04:52:36.310Z,44.72
2023-04-22T04:55:40.096Z,44.68
2023-04-22T04:58:49.635Z,44.62
2023-04-22T05:01:57.606Z,44.70
2023-04-22T05:05:00.807Z,44.66
2023-04-22T05:08:04.877Z,44.71
2023-04-22T05:11:10.971Z,44.65
2023-04-22T05:14:15.023Z,44.66
2023-04-22T05:17:21.213Z,44.63
2023-04-22T05:20:25.099Z,44.74
2023-04-22T05:23:28.079Z,44.62
2023-04-22T05:26:34.575Z,44.75
2023-04-22T05:29:43.310Z,44.64
2023-04-22T05:32:49.749Z,44.85
2023-04-22T05:35:52.763Z,44.75
2023-04-22T05:38:56.639Z,44.84
2023-04-22T05:59:22.311Z,44.85
2023-04-22T06:02:26.352Z,44.84
2023-04-22T06:05:29.498Z,44.77
2023-04-22T06:08:33.656Z,44.84
2023-04-22T06:11:36.581Z,44.93
2023-04-22T06:14:40.924Z,44.84
2023-04-22T06:17:44.333Z,44.84
2023-04-22T06:20:47.295Z,44.83
2023-04-22T06:23:51.482Z,44.81
2023-04-22T06:26:54.671Z,44.89
2023-04-22T06:29:59.401Z,44.86
2023-04-22T06:33:02.496Z,44.82
2023-04-22T06:36:06.335Z,44.85
2023-04-22T06:39:11.184Z,44.94
2023-04-22T06:42:35.544Z,44.90
2023-04-22T06:45:58.386Z,44.91
2023-04-22T06:49:14.860Z,44.96
2023-04-22T06:52:36.300Z,44.84
2023-04-22T06:55:39.505Z,44.88
2023-04-22T06:58:42.390Z,44.95
2023-04-22T07:01:46.968Z,44.88
2023-04-22T07:04:50.134Z,44.93
2023-04-22T07:07:53.042Z,44.97
2023-04-22T07:10:59.285Z,45.05
2023-04-22T07:14:10.425Z,45.00
2023-04-22T07:17:14.697Z,44.94
2023-04-22T07:30:50.548Z,44.82
2023-04-22T07:33:54.816Z,44.72
2023-04-22T07:36:57.780Z,43.84
2023-04-22T07:40:00.704Z,42.27
2023-04-22T07:43:05.619Z,41.10
2023-04-22T07:46:08.578Z,40.74
2023-04-22T07:49:16.709Z,40.30
2023-04-22T07:52:21.008Z,40.04
2023-04-22T07:55:23.950Z,40.00
2023-04-22T07:58:26.903Z,40.78
2023-04-22T08:01:29.752Z,41.13
2023-04-22T08:04:34.110Z,41.18
2023-04-22T08:07:37.091Z,41.13
2023-04-22T08:10:39.947Z,41.58
2023-04-22T08:13:42.887Z,41.52
2023-04-22T08:16:45.782Z,41.58
2023-04-22T08:19:50.621Z,41.59
2023-04-22T08:22:58.114Z,41.84
2023-04-22T08:26:01.160Z,42.05
2023-04-22T08:29:04.741Z,42.23
2023-04-22T08:32:07.872Z,42.41
2023-04-22T08:35:12.341Z,42.46
2023-04-22T08:38:15.623Z,42.60
2023-04-22T08:48:34.419Z,42.96
2023-04-22T08:51:39.571Z,42.99
2023-04-22T08:54:42.613Z,43.18
2023-04-22T08:57:46.095Z,43.17
2023-04-22T09:00:49.560Z,43.40
2023-04-22T09:03:54.097Z,43.45
2023-04-22T09:06:59.965Z,43.57
2023-04-22T09:10:02.941Z,43.70
2023-04-22T09:13:07.682Z,43.76
2023-04-22T09:16:11.370Z,43.91
2023-04-22T09:19:15.029Z,43.95
2023-04-22T09:29:20.923Z,43.95
2023-04-22T09:33:15.736Z,44.08
2023-04-22T09:36:22.453Z,44.05
2023-04-22T09:39:25.866Z,44.17
2023-04-22T09:42:28.923Z,44.20
2023-04-22T09:45:35.359Z,44.21
2023-04-22T09:48:43.842Z,44.19
2023-04-22T09:51:47.666Z,44.22
2023-04-22T09:54:52.923Z,44.31
2023-04-22T09:57:58.262Z,44.38
2023-04-22T10:01:03.536Z,44.44
2023-04-22T10:04:06.640Z,44.49
2023-04-22T10:07:09.905Z,44.48
2023-04-22T10:10:12.844Z,44.53
2023-04-22T10:13:15.787Z,44.54
2023-04-22T10:16:22.386Z,44.47
2023-04-22T10:19:27.532Z,44.52
2023-04-22T10:22:30.957Z,44.55
2023-04-22T10:25:33.871Z,44.58
2023-04-22T10:28:36.718Z,44.53
2023-04-22T10:31:41.180Z,44.47
2023-04-22T10:34:44.419Z,44.67
2023-04-22T10:37:49.029Z,44.78
2023-04-22T10:41:00.846Z,45.46
2023-04-22T10:44:08.103Z,47.55
2023-04-22T10:47:12.555Z,49.69
2023-04-22T10:50:22.347Z,51.04
2023-04-22T10:53:42.736Z,51.24
2023-04-22T10:57:03.908Z,50.68
2023-04-22T11:00:53.050Z,49.30
2023-04-22T11:04:23.081Z,47.89
2023-04-22T11:07:34.798Z,47.99
2023-04-22T11:10:44.634Z,48.24
2023-04-22T11:13:50.745Z,48.38
2023-04-22T11:20:25.847Z,48.26
2023-04-22T11:23:29.669Z,48.38
2023-04-22T11:26:37.575Z,48.09
2023-04-22T11:30:01.358Z,47.40
2023-04-22T11:33:04.326Z,47.39
2023-04-22T11:36:11.304Z,47.41
2023-04-22T11:39:16.699Z,47.48
2023-04-22T11:42:22.730Z,47.42
2023-04-22T11:45:26.309Z,47.43
2023-04-22T11:48:29.163Z,47.45
2023-04-22T11:51:33.419Z,47.34
2023-04-22T11:54:38.139Z,47.13
2023-04-22T11:57:41.095Z,47.25
2023-04-22T12:00:45.415Z,47.12
2023-04-22T12:03:50.309Z,46.99
2023-04-22T12:06:54.811Z,47.10
2023-04-22T12:09:57.958Z,47.09
2023-04-22T12:13:01.901Z,47.07
2023-04-22T12:16:06.352Z,46.95
2023-04-22T12:19:10.046Z,47.00
2023-04-22T12:22:14.364Z,46.99
2023-04-22T12:25:20.499Z,46.93
2023-04-22T12:28:23.597Z,46.87
2023-04-22T12:31:27.233Z,46.94
2023-04-22T12:34:30.137Z,47.04
2023-04-22T12:37:34.557Z,46.86
2023-04-22T12:40:37.392Z,46.89
2023-04-22T12:43:40.414Z,46.79
2023-04-22T12:46:43.397Z,46.77
2023-04-22T12:49:47.537Z,46.77
2023-04-22T12:52:52.181Z,46.68
2023-04-22T12:55:55.355Z,46.70
2023-04-22T12:59:03.092Z,46.71
2023-04-22T13:02:06.144Z,46.66
2023-04-22T13:05:10.133Z,46.59
2023-04-22T13:08:14.355Z,46.62
2023-04-22T13:11:17.249Z,46.55
2023-04-22T13:14:20.422Z,46.54
2023-04-22T13:17:23.339Z,46.66
2023-04-22T13:20:26.219Z,46.70
2023-04-22T13:23:30.886Z,46.59
2023-04-22T13:26:33.959Z,46.66
2023-04-22T13:29:37.093Z,46.44
2023-04-22T13:32:40.023Z,46.22
2023-04-22T13:35:43.013Z,46.22
2023-04-22T13:38:47.251Z,46.26
2023-04-22T13:41:50.350Z,46.33
2023-04-22T13:44:53.210Z,46.27
2023-04-22T13:47:56.149Z,46.30
2023-04-22T13:50:59.002Z,46.41
2023-04-22T13:54:03.249Z,46.40
2023-04-22T13:57:06.361Z,46.45
2023-04-22T14:00:10.452Z,46.42
2023-04-22T14:03:16.083Z,46.43
2023-04-22T14:06:19.646Z,46.36
2023-04-22T14:09:23.963Z,46.14
2023-04-22T14:12:26.883Z,46.23
2023-04-22T14:15:29.761Z,45.86
2023-04-22T14:18:36.103Z,45.94
2023-04-22T14:21:38.989Z,46.01
2023-04-22T14:24:43.217Z,46.06
2023-04-22T14:27:46.222Z,45.46
2023-04-22T14:30:49.199Z,44.46
2023-04-22T14:33:52.089Z,44.41
2023-04-22T14:36:55.241Z,44.01
2023-04-22T14:39:59.461Z,44.54
2023-04-22T14:43:04.453Z,44.51
2023-04-22T14:46:07.544Z,44.04
2023-04-22T14:49:10.510Z,44.21
2023-04-22T14:52:13.472Z,44.04
2023-04-22T14:55:23.235Z,43.85
2023-04-22T14:58:31.318Z,42.83
2023-04-22T15:01:34.599Z,42.51
2023-04-22T15:04:37.563Z,42.00
2023-04-22T15:07:40.449Z,41.88
2023-04-22T15:10:44.758Z,38.99
2023-04-22T15:13:47.627Z,38.75
2023-04-22T15:16:50.589Z,39.21
2023-04-22T15:19:57.561Z,40.63
2023-04-22T15:23:01.856Z,41.24
2023-04-22T15:26:06.203Z,41.22
2023-04-22T15:29:09.056Z,41.13
2023-04-22T15:32:12.021Z,40.64
2023-04-22T15:35:15.046Z,40.82
2023-04-22T15:38:18.156Z,40.67
2023-04-22T15:41:22.360Z,40.48
2023-04-22T15:44:25.390Z,40.41
2023-04-22T15:47:29.385Z,40.06
2023-04-22T15:50:32.332Z,40.53
2023-04-22T15:53:35.187Z,41.43
2023-04-22T15:56:39.409Z,41.01
2023-04-22T15:59:42.446Z,41.12
2023-04-22T16:02:46.514Z,40.93
2023-04-22T16:05:49.513Z,40.37
2023-04-22T16:08:52.397Z,40.19
2023-04-22T16:11:56.942Z,40.29
2023-04-22T16:14:59.880Z,39.99
2023-04-22T16:18:03.244Z,39.20
2023-04-22T16:21:06.314Z,39.54
2023-04-22T16:24:09.252Z,39.38
2023-04-22T16:27:16.430Z,39.28
2023-04-22T16:30:19.909Z,39.25
2023-04-22T16:33:22.831Z,39.20
2023-04-22T16:36:26.108Z,39.39
2023-04-22T16:39:29.082Z,38.72
2023-04-22T16:42:33.344Z,38.58
2023-04-22T16:45:36.224Z,38.68
2023-04-22T16:48:39.136Z,38.65
2023-04-22T16:51:42.035Z,38.46
2023-04-22T16:54:44.895Z,38.34
2023-04-22T16:57:50.692Z,38.49
2023-04-22T17:00:53.802Z,38.34
2023-04-22T17:03:57.064Z,38.26
2023-04-22T17:07:00.140Z,38.59
2023-04-22T17:10:03.203Z,38.64
2023-04-22T17:13:07.469Z,38.80
2023-04-22T17:16:11.013Z,38.79
2023-04-22T17:19:13.978Z,38.47
2023-04-22T17:22:16.901Z,38.77
2023-04-22T17:25:19.957Z,38.78
2023-04-22T17:28:24.512Z,38.93
2023-04-22T17:31:27.550Z,38.94
2023-04-22T17:34:30.618Z,38.87
2023-04-22T17:37:33.714Z,39.12
2023-04-22T17:40:36.759Z,39.01
2023-04-22T17:43:41.617Z,39.00
2023-04-22T17:46:44.580Z,38.87
2023-04-22T17:49:47.553Z,38.98
2023-04-22T17:52:50.523Z,38.99
2023-04-22T17:55:53.342Z,38.94
2023-04-22T17:58:57.585Z,38.85
2023-04-22T18:02:01.627Z,38.90
2023-04-22T18:05:05.564Z,39.06
2023-04-22T18:08:10.340Z,38.86
2023-04-22T18:11:13.253Z,39.09
2023-04-22T18:14:17.572Z,39.08
2023-04-22T18:17:20.501Z,39.16
2023-04-22T18:20:23.428Z,39.15
2023-04-22T18:23:26.442Z,39.25
2023-04-22T18:26:29.433Z,39.40
2023-04-22T18:29:33.699Z,39.54
2023-04-22T18:32:37.272Z,39.78
2023-04-22T18:35:41.489Z,40.01
2023-04-22T18:38:44.377Z,40.16
2023-04-22T18:41:47.234Z,40.33
2023-04-22T18:44:51.440Z,40.46
2023-04-22T18:47:54.556Z,40.58
2023-04-22T18:50:57.966Z,40.61
2023-04-22T18:54:01.248Z,40.75
2023-04-22T18:57:04.155Z,40.86
2023-04-22T19:00:10.133Z,40.95
2023-04-22T19:03:13.123Z,41.02
2023-04-22T19:06:16.094Z,41.42
2023-04-22T19:09:19.459Z,41.50
2023-04-22T19:12:22.477Z,41.61
2023-04-22T19:15:26.864Z,41.45
2023-04-22T19:18:29.731Z,41.77
2023-04-22T19:21:33.156Z,41.82
2023-04-22T19:24:36.515Z,41.80
2023-04-22T19:27:39.403Z,42.36
2023-04-22T19:30:44.277Z,42.71
2023-04-22T19:33:47.364Z,42.69
2023-04-22T19:36:51.245Z,42.92
2023-04-22T19:39:54.087Z,42.64
2023-04-22T19:42:58.977Z,42.80
2023-04-22T19:46:13.282Z,42.79
2023-04-22T19:49:16.976Z,42.79
2023-04-22T19:52:23.251Z,42.89
2023-04-22T19:55:26.636Z,42.93
2023-04-22T19:58:29.765Z,42.77
2023-04-22T20:01:35.102Z,43.03
2023-04-22T20:04:38.546Z,42.96
2023-04-22T20:07:43.509Z,42.91
2023-04-22T20:10:48.082Z,43.02
2023-04-22T20:13:51.609Z,43.18
2023-04-22T20:16:57.199Z,43.14
2023-04-22T20:20:01.627Z,43.16
2023-04-22T20:23:10.393Z,43.15
2023-04-22T20:26:13.914Z,43.21
2023-04-22T20:29:18.317Z,43.42
2023-04-22T20:32:22.794Z,43.50
2023-04-22T20:35:26.406Z,43.41
2023-04-22T20:38:30.892Z,43.49
2023-04-22T20:41:38.707Z,43.55
2023-04-22T20:44:41.938Z,43.68
2023-04-22T20:47:46.512Z,43.77
2023-04-22T20:50:49.701Z,43.88
2023-04-22T20:53:53.255Z,43.97
2023-04-22T20:56:57.736Z,43.97
2023-04-22T21:00:00.659Z,44.07
2023-04-22T21:03:08.913Z,44.07
2023-04-22T21:06:12.263Z,44.22
2023-04-22T21:09:15.470Z,44.19
2023-04-22T21:12:19.468Z,44.15
2023-04-22T21:15:22.869Z,44.19
2023-04-22T21:18:29.184Z,44.36
2023-04-22T21:21:34.810Z,44.30
2023-04-22T21:24:38.517Z,44.28
2023-04-22T21:27:41.965Z,44.53
2023-04-22T21:30:45.437Z,44.48
2023-04-22T21:33:49.649Z,44.54
2023-04-22T21:36:53.130Z,44.53
2023-04-22T21:39:56.075Z,44.53
2023-04-22T21:43:00.102Z,44.61
2023-04-22T21:46:02.991Z,44.69
2023-04-22T21:49:07.306Z,44.77
2023-04-22T21:52:10.594Z,44.78
2023-04-22T21:55:13.728Z,44.75
2023-04-22T21:58:16.628Z,44.71
2023-04-22T22:01:19.475Z,44.75
2023-04-22T22:04:23.830Z,44.92
2023-04-22T22:07:27.458Z,45.08
2023-04-22T22:10:30.393Z,44.94
2023-04-22T22:13:34.047Z,44.82
2023-04-22T22:16:38.663Z,44.75
2023-04-22T22:19:42.973Z,44.78
2023-04-22T22:22:46.887Z,45.01
2023-04-22T22:25:50.486Z,45.30
2023-04-22T22:28:53.578Z,45.46
2023-04-22T22:31:56.470Z,45.35
2023-04-22T22:35:00.784Z,45.29
2023-04-22T22:38:03.652Z,45.41
2023-04-22T22:41:06.544Z,45.42
2023-04-22T22:44:09.406Z,45.61
2023-04-22T22:47:12.441Z,45.98
2023-04-22T22:50:17.823Z,45.96
2023-04-22T22:53:21.069Z,46.25
2023-04-22T22:56:23.966Z,46.39
2023-04-22T22:59:26.794Z,46.64
2023-04-22T23:02:29.853Z,46.51
2023-04-22T23:05:34.332Z,46.71
2023-04-22T23:08:37.232Z,46.54
2023-04-22T23:11:40.408Z,46.71
2023-04-22T23:14:43.446Z,46.77
2023-04-22T23:17:46.576Z,46.64
2023-04-22T23:20:52.229Z,46.85
2023-04-22T23:23:56.037Z,46.90
2023-04-22T23:26:59.338Z,46.94
2023-04-22T23:30:02.673Z,46.95
2023-04-22T23:33:05.887Z,47.07
2023-04-22T23:36:11.347Z,46.84
2023-04-22T23:39:14.187Z,46.66
2023-04-22T23:42:17.001Z,46.42
2023-04-22T23:45:19.803Z,46.34
2023-04-22T23:48:22.715Z,46.24
2023-04-22T23:51:28.345Z,46.01
2023-04-22T23:54:31.629Z,46.04
2023-04-22T23:57:35.091Z,45.91
